This is the latest recevied weather packets stored in our database for station/object 9A3XK-13. If no packets are shown the sender has not sent any weather packets the latest 10 day(s).
| Time | Temp. | Humidity | Pressure | Rain* | Wind** | Luminosity | Snow |
|---|---|---|---|---|---|---|---|
| 1777656015 | 16.67° C | 38% | 1023.5 hPa | 0 mm | - | 24 W/m² | - |
| 1777655416 | 16.67° C | 37% | 1023.5 hPa | 0 mm | - | 26 W/m² | - |
| 1777654816 | 17.22° C | 36% | 1023.4 hPa | 0 mm | - | 47 W/m² | - |
| 1777654516 | 17.22° C | 36% | 1023.5 hPa | 0 mm | - | 82 W/m² | - |
| 1777651816 | 18.33° C | 32% | 1023.5 hPa | 0 mm | - | 242 W/m² | - |
| 1777651216 | 18.33° C | 32% | 1023.5 hPa | 0 mm | - | 272 W/m² | - |
| 1777650616 | 18.33° C | 32% | 1023.6 hPa | 0 mm | - | 261 W/m² | - |
| 1777650016 | 18.89° C | 30% | 1023.6 hPa | 0 mm | - | 331 W/m² | - |
| 1777649716 | 18.89° C | 31% | 1023.6 hPa | 0 mm | - | 346 W/m² | - |
| 1777649415 | 19.44° C | 31% | 1023.7 hPa | 0 mm | - | 360 W/m² | - |
| 1777649115 | 19.44° C | 30% | 1023.7 hPa | 0 mm | - | 377 W/m² | - |
| 1777648815 | 19.44° C | 31% | 1023.8 hPa | 0 mm | - | 394 W/m² | - |
| 1777648516 | 19.44° C | 30% | 1023.7 hPa | 0 mm | - | 409 W/m² | - |
| 1777648215 | 19.44° C | 30% | 1023.7 hPa | 0 mm | - | 424 W/m² | - |
| 1777647915 | 19.44° C | 30% | 1023.8 hPa | 0 mm | - | 441 W/m² | - |
| 1777647615 | 19.44° C | 30% | 1023.9 hPa | 0 mm | - | 452 W/m² | - |
| 1777647316 | 19.44° C | 31% | 1023.9 hPa | 0 mm | - | 467 W/m² | - |
| 1777647015 | 19.44° C | 30% | 1023.9 hPa | 0 mm | - | 489 W/m² | - |
| 1777646415 | 19.44° C | 30% | 1024 hPa | 0 mm | - | 525 W/m² | - |
| 1777646115 | 19.44° C | 31% | 1024 hPa | 0 mm | - | 543 W/m² | - |
| 1777645815 | 20° C | 29% | 1024.1 hPa | 0 mm | - | 559 W/m² | - |
| 1777645515 | 19.44° C | 30% | 1024 hPa | 0 mm | - | 576 W/m² | - |
| 1777645215 | 19.44° C | 30% | 1024.1 hPa | 0 mm | - | 590 W/m² | - |
| 1777644915 | 19.44° C | 30% | 1024.1 hPa | 0 mm | - | 599 W/m² | - |
| 1777644615 | 19.44° C | 31% | 1024.2 hPa | 0 mm | - | 604 W/m² | - |
* Rain latest hour (hover to see other rain measurements)
** Current wind speed in m/s (hover to see current wind gust speed)